createdAt,value
2024-02-28T00:00:43.020Z,11.26
2024-02-28T00:03:40.738Z,11.26
2024-02-28T00:06:38.341Z,11.26
2024-02-28T00:09:36.088Z,11.26
2024-02-28T00:12:33.600Z,11.26
2024-02-28T00:15:31.224Z,11.27
2024-02-28T00:18:28.946Z,11.27
2024-02-28T00:21:26.652Z,11.27
2024-02-28T00:24:24.267Z,11.29
2024-02-28T00:27:22.414Z,11.30
2024-02-28T00:30:19.873Z,11.32
2024-02-28T00:33:17.594Z,11.33
2024-02-28T00:36:16.420Z,11.35
2024-02-28T00:39:14.527Z,11.36
2024-02-28T00:42:11.952Z,11.38
2024-02-28T00:45:10.045Z,11.39
2024-02-28T00:48:07.964Z,11.39
2024-02-28T00:51:05.390Z,11.40
2024-02-28T00:54:03.167Z,11.40
2024-02-28T00:57:01.329Z,11.38
2024-02-28T00:59:58.743Z,11.36
2024-02-28T01:02:56.444Z,11.34
2024-02-28T01:05:53.829Z,11.32
2024-02-28T01:08:51.495Z,11.30
2024-02-28T01:11:48.920Z,11.28
2024-02-28T01:14:46.589Z,11.27
2024-02-28T01:17:44.035Z,11.26
2024-02-28T01:20:41.734Z,11.26
2024-02-28T01:23:39.084Z,11.25
2024-02-28T01:26:36.786Z,11.25
2024-02-28T01:29:34.494Z,11.24
2024-02-28T01:32:32.221Z,11.23
2024-02-28T01:35:29.609Z,11.21
2024-02-28T01:38:28.238Z,11.18
2024-02-28T01:41:25.771Z,11.16
2024-02-28T01:44:23.336Z,11.14
2024-02-28T01:47:21.407Z,11.11
2024-02-28T01:50:18.970Z,11.09
2024-02-28T01:53:18.151Z,11.08
2024-02-28T01:56:17.513Z,11.05
2024-02-28T01:59:15.383Z,11.02
2024-02-28T02:02:13.309Z,10.98
2024-02-28T02:05:11.035Z,10.94
2024-02-28T02:08:08.428Z,10.89
2024-02-28T02:11:06.042Z,10.86
2024-02-28T02:14:03.499Z,10.85
2024-02-28T02:17:01.231Z,10.83
2024-02-28T02:19:58.643Z,10.80
2024-02-28T02:22:56.284Z,10.77
2024-02-28T02:25:54.130Z,10.73
2024-02-28T02:28:51.748Z,10.70
2024-02-28T02:31:49.202Z,10.68
2024-02-28T02:34:47.258Z,10.67
2024-02-28T02:37:44.665Z,10.66
2024-02-28T02:40:42.297Z,10.66
2024-02-28T02:43:39.937Z,10.64
2024-02-28T02:46:37.677Z,10.62
2024-02-28T02:49:35.029Z,10.61
2024-02-28T02:52:32.577Z,10.59
2024-02-28T02:55:30.274Z,10.57
2024-02-28T02:58:27.950Z,10.53
2024-02-28T03:01:25.383Z,10.52
2024-02-28T03:04:22.911Z,10.50
2024-02-28T03:07:20.646Z,10.48
2024-02-28T03:10:18.043Z,10.47
2024-02-28T03:13:15.699Z,10.45
2024-02-28T03:16:13.558Z,10.41
2024-02-28T03:19:11.209Z,10.35
2024-02-28T03:22:08.597Z,10.31
2024-02-28T03:25:06.428Z,10.28
2024-02-28T03:28:03.821Z,10.27
2024-02-28T03:31:01.793Z,10.26
2024-02-28T03:33:59.505Z,10.26
2024-02-28T03:36:57.318Z,10.24
2024-02-28T03:39:54.802Z,10.23
2024-02-28T03:42:52.549Z,10.23
2024-02-28T03:45:51.311Z,10.21
2024-02-28T03:48:49.134Z,10.19
2024-02-28T03:51:46.598Z,10.18
2024-02-28T03:54:44.194Z,10.15
2024-02-28T03:57:41.587Z,10.13
2024-02-28T04:00:39.428Z,10.10
2024-02-28T04:03:36.921Z,10.09
2024-02-28T04:06:34.620Z,10.09
2024-02-28T04:09:32.458Z,10.06
2024-02-28T04:12:30.960Z,10.03
2024-02-28T04:15:29.619Z,10.00
2024-02-28T04:18:27.076Z,9.97
2024-02-28T04:21:24.715Z,9.93
2024-02-28T04:24:22.164Z,9.88
2024-02-28T04:27:19.886Z,9.84
2024-02-28T04:30:17.646Z,9.80
2024-02-28T04:33:15.204Z,9.75
2024-02-28T04:36:13.076Z,9.71
2024-02-28T04:39:10.927Z,9.66
2024-02-28T04:42:08.974Z,9.62
2024-02-28T04:45:06.376Z,9.57
2024-02-28T04:48:04.143Z,9.52
2024-02-28T04:51:01.577Z,9.47
2024-02-28T04:53:59.241Z,9.42
2024-02-28T04:56:59.209Z,9.38
2024-02-28T04:59:56.839Z,9.33
2024-02-28T05:02:54.410Z,9.28
2024-02-28T05:05:52.013Z,9.23
2024-02-28T05:08:49.447Z,9.18
2024-02-28T05:11:47.194Z,9.13
2024-02-28T05:14:44.673Z,9.08
2024-02-28T05:17:42.426Z,9.03
2024-02-28T05:20:40.087Z,8.99
2024-02-28T05:23:37.496Z,8.94
2024-02-28T05:26:36.315Z,8.90
2024-02-28T05:29:33.710Z,8.86
2024-02-28T05:32:31.366Z,8.80
2024-02-28T05:35:28.770Z,8.74
2024-02-28T05:38:26.478Z,8.68
2024-02-28T05:41:23.862Z,8.63
2024-02-28T05:44:21.724Z,8.59
2024-02-28T05:47:21.443Z,8.56
2024-02-28T05:50:20.301Z,8.56
2024-02-28T05:53:17.698Z,8.55
2024-02-28T05:56:15.949Z,8.56
2024-02-28T05:59:13.720Z,8.55
2024-02-28T06:02:11.493Z,8.53
2024-02-28T06:05:08.924Z,8.52
2024-02-28T06:08:07.013Z,8.52
2024-02-28T06:11:04.472Z,8.53
2024-02-28T06:14:03.164Z,8.52
2024-02-28T06:17:00.548Z,8.52
2024-02-28T06:19:58.268Z,8.52
2024-02-28T06:22:55.653Z,8.52
2024-02-28T06:25:53.324Z,8.53
2024-02-28T06:28:52.493Z,8.54
2024-02-28T06:31:49.950Z,8.55
2024-02-28T06:34:49.403Z,8.56
2024-02-28T06:37:50.986Z,8.58
2024-02-28T06:40:48.665Z,8.60
2024-02-28T06:43:47.455Z,8.61
2024-02-28T06:46:45.144Z,8.62
2024-02-28T06:49:42.837Z,8.66
2024-02-28T06:52:40.262Z,8.70
2024-02-28T06:55:37.934Z,8.72
2024-02-28T06:58:35.361Z,8.76
2024-02-28T07:01:33.249Z,8.82
2024-02-28T07:04:30.937Z,8.86
2024-02-28T07:07:28.797Z,8.91
2024-02-28T07:10:26.225Z,8.97
2024-02-28T07:13:23.817Z,9.02
2024-02-28T07:16:21.243Z,9.07
2024-02-28T07:19:19.441Z,9.13
2024-02-28T07:22:17.145Z,9.18
2024-02-28T07:25:14.800Z,9.21
2024-02-28T07:28:12.540Z,9.27
2024-02-28T07:31:10.333Z,9.33
2024-02-28T07:34:09.503Z,9.38
2024-02-28T07:37:07.195Z,9.44
2024-02-28T07:40:04.682Z,9.50
2024-02-28T07:43:02.315Z,9.58
2024-02-28T07:45:59.809Z,9.68
2024-02-28T07:48:57.524Z,9.78
2024-02-28T07:51:54.976Z,9.88
2024-02-28T07:54:52.578Z,9.97
2024-02-28T07:57:50.058Z,10.07
2024-02-28T08:00:47.696Z,10.17
2024-02-28T08:03:45.593Z,10.26
2024-02-28T08:06:43.367Z,10.35
2024-02-28T08:09:40.807Z,10.47
2024-02-28T08:12:38.565Z,10.58
2024-02-28T08:15:36.031Z,10.69
2024-02-28T08:18:35.020Z,10.78
2024-02-28T08:21:32.458Z,10.87
2024-02-28T08:24:30.313Z,10.95
2024-02-28T08:27:29.541Z,11.04
2024-02-28T08:30:28.005Z,11.15
2024-02-28T08:33:25.707Z,11.27
2024-02-28T08:36:23.604Z,11.40
2024-02-28T08:39:21.070Z,11.54
2024-02-28T08:42:18.740Z,11.66
2024-02-28T08:45:16.279Z,11.81
2024-02-28T08:48:14.092Z,11.92
2024-02-28T08:51:12.265Z,12.03
2024-02-28T08:54:09.930Z,12.15
2024-02-28T08:57:08.433Z,12.27
2024-02-28T09:00:06.037Z,12.40
2024-02-28T09:03:05.817Z,12.55
2024-02-28T09:06:03.266Z,12.73
2024-02-28T09:09:01.007Z,12.84
2024-02-28T09:11:58.395Z,12.92
2024-02-28T09:14:59.067Z,12.99
2024-02-28T09:17:56.532Z,13.04
2024-02-28T09:20:54.178Z,13.04
2024-02-28T09:23:51.588Z,13.08
2024-02-28T09:26:49.290Z,13.10
2024-02-28T09:29:46.672Z,13.10
2024-02-28T09:32:44.501Z,13.09
2024-02-28T09:35:42.490Z,13.11
2024-02-28T09:38:40.666Z,13.14
2024-02-28T09:41:38.135Z,13.19
2024-02-28T09:44:35.802Z,13.27
2024-02-28T09:47:34.683Z,13.37
2024-02-28T09:50:32.354Z,13.55
2024-02-28T09:53:29.716Z,13.92
2024-02-28T09:56:27.470Z,14.39
2024-02-28T09:59:31.816Z,14.79
2024-02-28T10:02:35.330Z,15.17
2024-02-28T10:05:33.271Z,15.47
2024-02-28T10:08:32.949Z,15.94
2024-02-28T10:11:30.774Z,16.45
2024-02-28T10:14:28.186Z,16.92
2024-02-28T10:17:27.511Z,17.38
2024-02-28T10:20:25.668Z,17.48
2024-02-28T10:23:23.236Z,17.74
2024-02-28T10:26:20.612Z,18.01
2024-02-28T10:29:18.240Z,17.90
2024-02-28T10:32:15.627Z,17.96
2024-02-28T10:35:13.469Z,18.10
2024-02-28T10:38:11.100Z,18.33
2024-02-28T10:41:11.358Z,18.67
2024-02-28T10:44:11.832Z,19.12
2024-02-28T10:47:12.752Z,19.67
2024-02-28T10:50:10.928Z,20.42
2024-02-28T10:53:11.078Z,21.01
2024-02-28T10:56:08.816Z,21.60
2024-02-28T10:59:06.673Z,22.15
2024-02-28T11:02:05.300Z,22.81
2024-02-28T11:05:03.200Z,23.52
2024-02-28T11:08:01.035Z,24.01
2024-02-28T11:10:58.592Z,24.46
2024-02-28T11:13:56.185Z,24.97
2024-02-28T11:16:55.258Z,25.24
2024-02-28T11:19:53.306Z,25.52
2024-02-28T11:22:51.318Z,25.55
2024-02-28T11:25:48.935Z,25.32
2024-02-28T11:28:46.848Z,24.95
2024-02-28T11:31:44.235Z,24.73
2024-02-28T11:34:42.169Z,24.59
2024-02-28T11:37:39.908Z,24.55
2024-02-28T11:40:37.449Z,24.62
2024-02-28T11:43:46.878Z,24.59
2024-02-28T11:46:49.422Z,24.31
2024-02-28T11:49:46.833Z,24.07
2024-02-28T11:52:44.632Z,23.88
2024-02-28T11:55:43.305Z,23.70
2024-02-28T11:58:40.879Z,23.60
2024-02-28T12:01:38.488Z,23.50
2024-02-28T12:04:36.416Z,23.34
2024-02-28T12:07:33.985Z,23.14
2024-02-28T12:10:31.417Z,22.88
2024-02-28T12:13:29.318Z,22.68
2024-02-28T12:16:26.662Z,22.57
2024-02-28T12:19:24.385Z,22.38
2024-02-28T12:22:21.762Z,22.24
2024-02-28T12:25:19.866Z,22.10
2024-02-28T12:28:17.233Z,22.07
2024-02-28T12:31:14.994Z,22.09
2024-02-28T12:34:12.685Z,22.07
2024-02-28T12:37:10.593Z,21.97
2024-02-28T12:40:09.558Z,21.76
2024-02-28T12:43:07.389Z,21.72
2024-02-28T12:46:05.253Z,21.73
2024-02-28T12:49:02.811Z,21.64
2024-02-28T12:52:00.494Z,21.49
2024-02-28T12:54:58.022Z,21.24
2024-02-28T12:57:56.494Z,20.92
2024-02-28T13:00:54.497Z,20.46
2024-02-28T13:03:52.210Z,19.96
2024-02-28T13:06:49.602Z,19.52
2024-02-28T13:09:47.321Z,19.23
2024-02-28T13:12:44.741Z,18.98
2024-02-28T13:15:42.356Z,18.66
2024-02-28T13:18:40.540Z,18.41
2024-02-28T13:21:38.522Z,18.20
2024-02-28T13:24:37.062Z,18.00
2024-02-28T13:27:34.840Z,17.84
2024-02-28T13:30:32.722Z,17.78
2024-02-28T13:33:30.420Z,17.70
2024-02-28T13:36:28.053Z,17.61
2024-02-28T13:39:25.830Z,17.54
2024-02-28T13:42:25.670Z,17.43
2024-02-28T13:45:23.552Z,17.29
2024-02-28T13:48:22.113Z,17.19
2024-02-28T13:51:19.952Z,17.12
2024-02-28T13:54:17.655Z,17.05
2024-02-28T13:57:15.279Z,16.96
2024-02-28T14:00:14.622Z,16.86
2024-02-28T14:03:12.342Z,16.71
2024-02-28T14:06:10.003Z,16.58
2024-02-28T14:09:07.676Z,16.43
2024-02-28T14:12:05.430Z,16.29
2024-02-28T14:15:02.832Z,16.16
2024-02-28T14:18:00.599Z,15.97
2024-02-28T14:20:58.015Z,15.73
2024-02-28T14:23:55.694Z,15.47
2024-02-28T14:26:53.350Z,15.31
2024-02-28T14:29:50.733Z,15.21
2024-02-28T14:32:50.376Z,15.14
2024-02-28T14:35:47.862Z,15.09
2024-02-28T14:38:46.560Z,15.02
2024-02-28T14:41:44.954Z,14.96
2024-02-28T14:44:42.744Z,14.93
2024-02-28T14:47:40.586Z,14.89
2024-02-28T14:50:38.465Z,14.82
2024-02-28T14:53:35.863Z,14.76
2024-02-28T14:56:33.618Z,14.67
2024-02-28T14:59:31.028Z,14.55
2024-02-28T15:02:28.723Z,14.45
2024-02-28T15:05:26.260Z,14.34
2024-02-28T15:08:25.059Z,14.29
2024-02-28T15:11:22.620Z,14.25
2024-02-28T15:14:20.477Z,14.16
2024-02-28T15:17:17.862Z,14.04
2024-02-28T15:20:15.519Z,13.93
2024-02-28T15:23:13.068Z,13.84
2024-02-28T15:26:10.460Z,13.76
2024-02-28T15:29:08.705Z,13.66
2024-02-28T15:32:06.076Z,13.60
2024-02-28T15:35:03.736Z,13.52
2024-02-28T15:38:01.131Z,13.43
2024-02-28T15:40:58.756Z,13.33
2024-02-28T15:43:56.872Z,13.23
2024-02-28T15:46:54.680Z,13.14
2024-02-28T15:49:52.375Z,13.03
2024-02-28T15:52:49.924Z,12.94
2024-02-28T15:55:47.578Z,12.86
2024-02-28T15:58:45.011Z,12.76
2024-02-28T16:01:42.773Z,12.64
2024-02-28T16:04:40.367Z,12.53
2024-02-28T16:07:38.064Z,12.39
2024-02-28T16:10:35.747Z,12.27
2024-02-28T16:13:33.194Z,12.16
2024-02-28T16:16:30.814Z,12.07
2024-02-28T16:19:28.259Z,11.99
2024-02-28T16:22:26.078Z,11.93
2024-02-28T16:25:23.867Z,11.88
2024-02-28T16:28:21.403Z,11.82
2024-02-28T16:31:18.872Z,11.74
2024-02-28T16:34:16.710Z,11.67
2024-02-28T16:37:15.566Z,11.62
2024-02-28T16:40:13.412Z,11.57
2024-02-28T16:43:10.986Z,11.52
2024-02-28T16:46:08.638Z,11.46
2024-02-28T16:49:06.814Z,11.41
2024-02-28T16:52:04.685Z,11.35
2024-02-28T16:55:02.242Z,11.30
2024-02-28T16:58:00.809Z,11.24
2024-02-28T17:00:58.674Z,11.19
2024-02-28T17:03:56.123Z,11.13
2024-02-28T17:06:53.841Z,11.08
2024-02-28T17:09:51.518Z,11.06
2024-02-28T17:12:49.301Z,11.04
2024-02-28T17:15:48.161Z,11.02
2024-02-28T17:18:46.683Z,11.01
2024-02-28T17:21:44.716Z,11.01
2024-02-28T17:24:42.158Z,11.00
2024-02-28T17:27:39.966Z,10.98
2024-02-28T17:30:37.469Z,10.97
2024-02-28T17:33:35.201Z,10.95
2024-02-28T17:36:32.774Z,10.91
2024-02-28T17:39:30.510Z,10.88
2024-02-28T17:42:28.275Z,10.85
2024-02-28T17:45:25.980Z,10.82
2024-02-28T17:48:23.745Z,10.78
2024-02-28T17:51:21.140Z,10.75
2024-02-28T17:54:18.787Z,10.72
2024-02-28T17:57:18.615Z,10.69
2024-02-28T18:00:22.720Z,10.67
2024-02-28T18:03:20.702Z,10.66
2024-02-28T18:06:19.396Z,10.65
2024-02-28T18:09:19.651Z,10.63
2024-02-28T18:12:17.043Z,10.62
2024-02-28T18:15:14.767Z,10.62
2024-02-28T18:18:12.210Z,10.61
2024-02-28T18:21:09.916Z,10.59
2024-02-28T18:24:07.282Z,10.55
2024-02-28T18:27:10.286Z,10.53
2024-02-28T18:30:08.901Z,10.51
2024-02-28T18:33:07.121Z,10.50
2024-02-28T18:36:04.522Z,10.49
2024-02-28T18:39:04.446Z,10.48
2024-02-28T18:42:02.134Z,10.48
2024-02-28T18:44:59.504Z,10.48
2024-02-28T18:47:57.327Z,10.49
2024-02-28T18:50:54.743Z,10.50
2024-02-28T18:53:52.470Z,10.50
2024-02-28T18:56:49.830Z,10.48
2024-02-28T18:59:47.506Z,10.47
2024-02-28T19:02:45.365Z,10.46
2024-02-28T19:05:43.060Z,10.44
2024-02-28T19:08:40.431Z,10.42
2024-02-28T19:11:38.102Z,10.41
2024-02-28T19:14:35.514Z,10.40
2024-02-28T19:17:33.314Z,10.38
2024-02-28T19:20:30.691Z,10.37
2024-02-28T19:23:28.824Z,10.36
2024-02-28T19:26:26.183Z,10.35
2024-02-28T19:29:23.859Z,10.34
2024-02-28T19:32:21.493Z,10.32
2024-02-28T19:35:18.880Z,10.31
2024-02-28T19:38:16.561Z,10.28
2024-02-28T19:41:14.374Z,10.26
2024-02-28T19:44:12.240Z,10.25
2024-02-28T19:47:09.802Z,10.24
2024-02-28T19:50:07.372Z,10.20
2024-02-28T19:53:05.582Z,10.17
2024-02-28T19:56:03.396Z,10.13
2024-02-28T19:59:00.796Z,10.09
2024-02-28T20:01:58.567Z,10.04
2024-02-28T20:04:56.081Z,9.97
2024-02-28T20:07:53.591Z,9.92
2024-02-28T20:10:50.997Z,9.86
2024-02-28T20:13:51.561Z,9.80
2024-02-28T20:16:49.452Z,9.74
2024-02-28T20:19:47.099Z,9.69
2024-02-28T20:22:45.799Z,9.63
2024-02-28T20:25:43.387Z,9.56
2024-02-28T20:28:41.330Z,9.50
2024-02-28T20:31:38.861Z,9.44
2024-02-28T20:34:38.797Z,9.37
2024-02-28T20:37:36.882Z,9.32
2024-02-28T20:40:34.252Z,9.25
2024-02-28T20:43:32.728Z,9.18
2024-02-28T20:46:30.489Z,9.12
2024-02-28T20:49:28.091Z,9.06
2024-02-28T20:52:26.440Z,9.00
2024-02-28T20:55:26.986Z,8.94
2024-02-28T20:58:24.655Z,8.88
2024-02-28T21:01:22.353Z,8.80
2024-02-28T21:04:20.113Z,8.72
2024-02-28T21:07:17.695Z,8.64
2024-02-28T21:10:15.415Z,8.58
2024-02-28T21:13:12.806Z,8.50
2024-02-28T21:16:10.452Z,8.44
2024-02-28T21:19:08.167Z,8.38
2024-02-28T21:22:05.646Z,8.32
2024-02-28T21:25:04.006Z,8.28
2024-02-28T21:28:01.610Z,8.23
2024-02-28T21:31:00.142Z,8.18
2024-02-28T21:33:58.205Z,8.12
2024-02-28T21:36:55.813Z,8.07
2024-02-28T21:39:53.252Z,8.02
2024-02-28T21:42:51.281Z,7.98
2024-02-28T21:45:48.763Z,7.94
2024-02-28T21:48:50.920Z,7.90
2024-02-28T21:51:50.732Z,7.88
2024-02-28T21:54:48.500Z,7.84
2024-02-28T21:57:46.395Z,7.82
2024-02-28T22:00:44.047Z,7.79
2024-02-28T22:03:41.690Z,7.76
2024-02-28T22:06:39.376Z,7.73
2024-02-28T22:09:36.805Z,7.72
2024-02-28T22:12:37.662Z,7.71
2024-02-28T22:15:37.277Z,7.68
2024-02-28T22:18:34.931Z,7.66
2024-02-28T22:21:32.342Z,7.64
2024-02-28T22:24:30.042Z,7.61
2024-02-28T22:27:27.554Z,7.57
2024-02-28T22:30:26.753Z,7.54
2024-02-28T22:33:24.190Z,7.51
2024-02-28T22:36:21.915Z,7.48
2024-02-28T22:39:19.268Z,7.47
2024-02-28T22:42:17.763Z,7.45
2024-02-28T22:45:15.133Z,7.43
2024-02-28T22:48:12.790Z,7.41
2024-02-28T22:51:10.193Z,7.40
2024-02-28T22:54:08.924Z,7.40
2024-02-28T22:57:06.719Z,7.39
2024-02-28T23:00:10.989Z,7.39
2024-02-28T23:03:08.985Z,7.38
2024-02-28T23:06:06.551Z,7.38
2024-02-28T23:09:04.071Z,7.37
2024-02-28T23:12:01.458Z,7.35
2024-02-28T23:14:59.018Z,7.33
2024-02-28T23:17:57.508Z,7.30
2024-02-28T23:20:55.047Z,7.26
2024-02-28T23:23:52.594Z,7.22
2024-02-28T23:26:50.240Z,7.17
2024-02-28T23:29:47.609Z,7.13
2024-02-28T23:32:45.271Z,7.08
2024-02-28T23:35:45.013Z,7.04
2024-02-28T23:38:42.601Z,6.99
2024-02-28T23:41:40.002Z,6.94
2024-02-28T23:44:37.725Z,6.91
2024-02-28T23:47:35.167Z,6.88
2024-02-28T23:50:33.008Z,6.87
2024-02-28T23:53:30.381Z,6.86
2024-02-28T23:56:28.076Z,6.86
2024-02-28T23:59:25.467Z,6.87
